Reklama

Seznam meteostanic a jejich METAR

Vyhledat místa podle abecedy:
A B C D E F G H I J K L M N O P Q R S T U V W X Y Z

Filtrovat:

ID stanice:
a/nebo
Název místa (fulltext):
 
Místo (ID)Naposledy načteno 
Jakarta (WIII) 15.11.2018 10:00 UTC Zobrazit METAR
WIII 151000Z 26015KT 9999 SCT020 32/23 Q1008 NOSIG
Jerusalem (LLJR) Zatím nenačteno  
Joensuu (EFJO) 15.11.2018 11:50 UTC Zobrazit METAR
EFJO 151150Z AUTO 20007KT 160V220 6000 OVC005 03/03 Q1026
Johannesburg (FAJS) 09.01.2013 23:00 UTC Zobrazit METAR
FAJS 092300Z 01010KT 340V040 CAVOK 22/11 Q1020 NOSIG
Johnston I (PJON) Zatím nenačteno  
Reklama

Počasí na Váš email

Emaily jsou bez reklamy a bez spamu



Odhlásit newsletter

Reklama


Lunární kalendář

  • 23.11.
  • 30.11.
  • 07.12.
  • 15.12.



Reklama


Reklama
Povinné ručení
Reklama



Reklama